Skip Navigation Links Skip Navigation Links

Current Weather

William M Tuck, South Boston, Va.

For information only: do not use for flight planning or navigation.
Latest weather
Observation time Thursday, October 18, 2018 1:30 AM EDT
Local time Thursday, October 18, 2018 1:59 AM EDT
Flight conditions Visual Meteorological Conditions
Winds
Wind speed calm
Visibility 10 mi.
Sky condition
Ceiling unlimited
Sky clear
Temperature 49°F
Dewpoint 44°F
Altimeter 30.27 in.Hg
Derived measurements
Relative humidity 82%
Wind chill 49°F
Density altitude -523 ft.
Remarks
Fully automated report.
Automated weather observing station without precipitation discriminator.
METAR KW78 180530Z AUTO 00000KT 10SM CLR 09/06 A3027 RMK AO1 T00930064

Settings

Location code

InnerDrive.Weather 4.0.6770.0 Release CLR 4.0.30319.42000
Copyright ©2018 Inner Drive Technology. All rights reserved. Portions Copyright ©1986-2018 David Braverman.

Find weather

Site navigation


Skip Navigation Links

Place info

Page info

PayPal - The safer, easier way to pay online!

Return home.

Copyright ©2018 Inner Drive Technology. Purveyors of fine, hand-crafted computer software. Page printed 2018-10-18T05:59:48 UTC.